createdAt,value
2023-03-28T00:00:26.274Z,27.37
2023-03-28T00:02:52.848Z,23.87
2023-03-28T00:05:19.954Z,27.73
2023-03-28T00:07:46.749Z,28.60
2023-03-28T00:10:13.242Z,29.30
2023-03-28T00:12:39.713Z,28.67
2023-03-28T00:15:06.506Z,29.10
2023-03-28T00:17:33.646Z,31.87
2023-03-28T00:20:02.864Z,31.93
2023-03-28T00:22:30.785Z,22.43
2023-03-28T00:24:58.825Z,23.30
2023-03-28T00:27:25.577Z,24.77
2023-03-28T00:29:52.190Z,24.03
2023-03-28T00:32:18.669Z,26.20
2023-03-28T00:34:45.441Z,29.60
2023-03-28T00:37:14.917Z,25.67
2023-03-28T00:39:41.422Z,21.93
2023-03-28T00:42:11.847Z,17.47
2023-03-28T00:44:38.425Z,19.77
2023-03-28T00:47:05.231Z,19.87
2023-03-28T00:49:32.166Z,19.20
2023-03-28T00:51:59.402Z,18.23
2023-03-28T00:54:26.945Z,24.20
2023-03-28T00:56:54.169Z,19.30
2023-03-28T00:59:21.433Z,22.20
2023-03-28T01:01:47.958Z,19.90
2023-03-28T01:04:20.560Z,21.17
2023-03-28T01:06:49.054Z,20.83
2023-03-28T01:09:16.757Z,23.77
2023-03-28T01:11:43.642Z,22.20
2023-03-28T01:14:13.500Z,27.70
2023-03-28T01:16:41.989Z,25.00
2023-03-28T01:19:27.417Z,27.07
2023-03-28T01:22:29.411Z,26.57
2023-03-28T01:24:58.685Z,22.77
2023-03-28T01:27:25.330Z,24.17
2023-03-28T01:30:03.011Z,21.57
2023-03-28T01:32:52.865Z,23.43
2023-03-28T01:35:19.384Z,22.50
2023-03-28T01:38:01.595Z,25.30
2023-03-28T01:40:31.176Z,24.47
2023-03-28T01:43:16.371Z,24.80
2023-03-28T01:45:49.975Z,22.63
2023-03-28T01:48:19.781Z,22.30
2023-03-28T01:50:56.536Z,28.60
2023-03-28T01:53:23.116Z,21.57
2023-03-28T01:56:03.198Z,22.00
2023-03-28T01:58:44.267Z,23.33
2023-03-28T02:01:17.816Z,28.43
2023-03-28T02:03:45.945Z,18.93
2023-03-28T02:06:12.718Z,25.63
2023-03-28T02:08:39.671Z,22.27
2023-03-28T02:11:06.363Z,26.27
2023-03-28T02:13:34.235Z,23.67
2023-03-28T02:16:01.372Z,27.60
2023-03-28T02:18:37.056Z,22.33
2023-03-28T02:21:07.581Z,26.37
2023-03-28T02:23:40.700Z,24.43
2023-03-28T02:26:07.607Z,22.50
2023-03-28T02:28:34.487Z,22.97
2023-03-28T02:31:01.795Z,16.90
2023-03-28T02:33:35.134Z,21.13
2023-03-28T02:36:10.733Z,22.00
2023-03-28T02:38:40.286Z,23.13
2023-03-28T02:41:26.412Z,19.77
2023-03-28T02:44:05.436Z,19.93
2023-03-28T02:46:34.258Z,20.60
2023-03-28T02:49:00.754Z,20.80
2023-03-28T02:51:30.328Z,19.67
2023-03-28T02:53:58.679Z,19.27
2023-03-28T02:56:25.208Z,20.33
2023-03-28T02:58:51.698Z,22.60
2023-03-28T03:01:18.229Z,22.10
2023-03-28T03:03:46.013Z,21.97
2023-03-28T03:06:14.037Z,25.20
2023-03-28T03:08:40.792Z,22.73
2023-03-28T03:11:07.339Z,24.03
2023-03-28T03:13:33.825Z,18.77
2023-03-28T03:16:01.389Z,19.17
2023-03-28T03:18:28.020Z,17.07
2023-03-28T03:20:54.910Z,16.00
2023-03-28T03:23:21.556Z,20.80
2023-03-28T03:25:50.729Z,19.03
2023-03-28T03:28:17.297Z,18.77
2023-03-28T03:30:43.863Z,16.13
2023-03-28T03:33:10.693Z,19.63
2023-03-28T03:35:37.777Z,16.63
2023-03-28T03:38:04.485Z,18.60
2023-03-28T03:40:31.049Z,23.10
2023-03-28T03:42:57.592Z,16.37
2023-03-28T03:45:24.089Z,19.57
2023-03-28T03:47:50.691Z,15.90
2023-03-28T03:50:17.305Z,13.53
2023-03-28T03:52:43.894Z,19.13
2023-03-28T03:55:10.625Z,13.73
2023-03-28T03:57:37.182Z,16.30
2023-03-28T04:00:12.028Z,16.77
2023-03-28T04:02:39.242Z,12.07
2023-03-28T04:05:08.367Z,13.97
2023-03-28T04:07:34.918Z,12.37
2023-03-28T04:10:01.418Z,13.57
2023-03-28T04:12:27.975Z,12.33
2023-03-28T04:14:54.454Z,15.97
2023-03-28T04:17:21.579Z,14.77
2023-03-28T04:19:49.773Z,13.60
2023-03-28T04:22:18.278Z,14.00
2023-03-28T04:24:45.051Z,11.67
2023-03-28T04:27:11.922Z,13.97
2023-03-28T04:29:39.455Z,17.00
2023-03-28T04:32:06.403Z,13.67
2023-03-28T04:34:33.993Z,13.03
2023-03-28T04:37:01.823Z,13.37
2023-03-28T04:39:29.375Z,14.80
2023-03-28T04:41:56.097Z,13.20
2023-03-28T04:44:23.079Z,15.17
2023-03-28T04:46:51.145Z,15.73
2023-03-28T04:49:17.828Z,21.57
2023-03-28T04:51:44.382Z,19.43
2023-03-28T04:54:11.026Z,11.80
2023-03-28T04:56:37.569Z,11.47
2023-03-28T04:59:04.123Z,8.73
2023-03-28T05:01:31.049Z,7.07
2023-03-28T05:03:57.681Z,6.17
2023-03-28T05:06:26.025Z,6.27
2023-03-28T05:08:52.609Z,7.63
2023-03-28T05:11:19.098Z,6.17
2023-03-28T05:13:45.660Z,5.80
2023-03-28T05:16:12.123Z,7.67
2023-03-28T05:18:38.686Z,8.03
2023-03-28T05:21:05.331Z,9.83
2023-03-28T05:23:31.876Z,8.17
2023-03-28T05:25:59.083Z,5.90
2023-03-28T05:28:25.549Z,8.40
2023-03-28T05:30:52.129Z,6.40
2023-03-28T05:33:18.704Z,7.17
2023-03-28T05:35:45.221Z,4.53
2023-03-28T05:38:11.742Z,7.73
2023-03-28T05:40:38.288Z,6.30
2023-03-28T05:43:05.028Z,12.63
2023-03-28T05:45:31.650Z,14.43
2023-03-28T05:47:58.188Z,10.33
2023-03-28T05:50:24.898Z,10.97
2023-03-28T05:52:51.385Z,7.20
2023-03-28T05:55:17.905Z,7.50
2023-03-28T05:57:44.431Z,11.23
2023-03-28T06:00:12.625Z,7.77
2023-03-28T06:02:40.445Z,7.33
2023-03-28T06:05:07.577Z,6.97
2023-03-28T06:07:41.900Z,8.47
2023-03-28T06:10:09.535Z,8.73
2023-03-28T06:12:36.303Z,7.63
2023-03-28T06:15:03.013Z,8.33
2023-03-28T06:17:29.549Z,7.83
2023-03-28T06:19:56.249Z,8.00
2023-03-28T06:22:22.778Z,9.47
2023-03-28T06:24:49.309Z,9.67
2023-03-28T06:27:16.431Z,9.87
2023-03-28T06:29:42.931Z,8.53
2023-03-28T06:32:09.498Z,7.50
2023-03-28T06:34:35.999Z,7.03
2023-03-28T06:37:02.638Z,6.57
2023-03-28T06:39:29.123Z,7.23
2023-03-28T06:41:55.625Z,4.47
2023-03-28T06:44:22.255Z,4.47
2023-03-28T06:46:48.840Z,5.70
2023-03-28T06:49:15.414Z,3.60
2023-03-28T06:51:41.965Z,3.83
2023-03-28T06:54:08.450Z,5.17
2023-03-28T06:56:35.081Z,5.40
2023-03-28T06:59:01.677Z,3.50
2023-03-28T07:01:28.212Z,4.23
2023-03-28T07:03:54.907Z,3.53
2023-03-28T07:06:21.542Z,2.70
2023-03-28T07:08:48.147Z,3.50
2023-03-28T07:11:14.619Z,4.60
2023-03-28T07:13:41.298Z,4.03
2023-03-28T07:16:08.706Z,6.47
2023-03-28T07:18:35.477Z,6.53
2023-03-28T07:21:06.147Z,7.30
2023-03-28T07:23:32.788Z,4.37
2023-03-28T07:25:59.305Z,4.77
2023-03-28T07:28:25.972Z,3.13
2023-03-28T07:30:55.566Z,4.43
2023-03-28T07:33:30.281Z,6.97
2023-03-28T07:36:11.762Z,7.20
2023-03-28T07:38:38.355Z,5.97
2023-03-28T07:41:05.604Z,4.13
2023-03-28T07:43:32.192Z,2.73
2023-03-28T07:46:02.505Z,3.00
2023-03-28T07:48:29.428Z,4.07
2023-03-28T07:50:55.924Z,3.20
2023-03-28T07:53:22.436Z,2.63
2023-03-28T07:55:55.264Z,2.40
2023-03-28T07:58:22.439Z,1.53
2023-03-28T08:00:48.974Z,1.20
2023-03-28T08:03:16.191Z,2.53
2023-03-28T08:05:43.631Z,1.27
2023-03-28T08:08:10.213Z,0.70
2023-03-28T08:10:37.050Z,2.10
2023-03-28T08:13:03.609Z,1.07
2023-03-28T08:15:30.157Z,3.00
2023-03-28T08:17:56.755Z,1.97
2023-03-28T08:20:23.339Z,6.63
2023-03-28T08:22:49.944Z,5.40
2023-03-28T08:25:16.710Z,5.97
2023-03-28T08:27:43.257Z,10.57
2023-03-28T08:30:10.851Z,2.67
2023-03-28T08:32:37.397Z,1.37
2023-03-28T08:35:04.103Z,2.87
2023-03-28T08:37:31.563Z,3.10
2023-03-28T08:39:59.119Z,2.13
2023-03-28T08:42:39.117Z,1.53
2023-03-28T08:45:26.027Z,3.27
2023-03-28T08:47:55.713Z,3.20
2023-03-28T08:50:26.169Z,1.27
2023-03-28T08:52:52.890Z,2.20
2023-03-28T08:55:39.175Z,1.27
2023-03-28T08:58:05.848Z,6.87
2023-03-28T09:00:33.293Z,2.37
2023-03-28T09:03:00.091Z,10.23
2023-03-28T09:05:32.926Z,2.60
2023-03-28T09:08:02.445Z,4.97
2023-03-28T09:10:47.638Z,9.47
2023-03-28T09:13:14.203Z,3.00
2023-03-28T09:15:46.710Z,7.57
2023-03-28T09:18:19.485Z,8.30
2023-03-28T09:20:49.355Z,3.00
2023-03-28T09:23:16.231Z,3.23
2023-03-28T09:25:49.592Z,3.07
2023-03-28T09:28:35.238Z,5.17
2023-03-28T09:31:02.243Z,1.43
2023-03-28T09:33:39.240Z,2.00
2023-03-28T09:36:10.997Z,2.43
2023-03-28T09:38:57.794Z,1.03
2023-03-28T09:41:42.635Z,1.87
2023-03-28T09:44:09.141Z,2.93
2023-03-28T09:46:39.997Z,3.03
2023-03-28T09:49:06.806Z,0.80
2023-03-28T09:51:33.357Z,2.40
2023-03-28T09:54:00.482Z,2.40
2023-03-28T09:56:27.623Z,2.10
2023-03-28T09:58:58.263Z,1.90
2023-03-28T10:01:34.214Z,1.63
2023-03-28T10:04:00.945Z,3.80
2023-03-28T10:06:28.395Z,1.80
2023-03-28T10:09:13.538Z,2.80
2023-03-28T10:11:55.357Z,1.43
2023-03-28T10:14:32.029Z,2.13
2023-03-28T10:17:01.280Z,2.53
2023-03-28T10:19:29.107Z,3.30
2023-03-28T10:21:55.724Z,1.57
2023-03-28T10:24:22.281Z,5.13
2023-03-28T10:26:48.794Z,3.73
2023-03-28T10:29:15.603Z,4.67
2023-03-28T10:31:46.704Z,5.70
2023-03-28T10:34:23.413Z,2.77
2023-03-28T10:36:49.932Z,3.83
2023-03-28T10:39:29.466Z,1.60
2023-03-28T10:41:56.948Z,3.93
2023-03-28T10:44:33.550Z,3.53
2023-03-28T10:47:01.396Z,4.53
2023-03-28T10:49:28.238Z,2.90
2023-03-28T10:51:55.014Z,3.90
2023-03-28T10:54:24.678Z,1.20
2023-03-28T10:56:58.297Z,2.37
2023-03-28T10:59:43.670Z,3.03
2023-03-28T11:02:13.335Z,1.90
2023-03-28T11:04:57.034Z,2.63
2023-03-28T11:07:33.662Z,3.03
2023-03-28T11:10:03.686Z,1.27
2023-03-28T11:15:03.436Z,0.70
2023-03-28T11:17:33.061Z,1.20
2023-03-28T11:19:59.556Z,2.37
2023-03-28T11:22:29.259Z,1.60
2023-03-28T11:24:58.795Z,1.40
2023-03-28T11:27:34.044Z,2.77
2023-03-28T11:30:10.163Z,4.13
2023-03-28T11:32:38.540Z,3.20
2023-03-28T11:35:23.617Z,1.60
2023-03-28T11:37:53.308Z,1.87
2023-03-28T11:40:28.302Z,1.80
2023-03-28T11:43:00.535Z,1.83
2023-03-28T11:45:51.126Z,2.47
2023-03-28T11:48:29.559Z,1.80
2023-03-28T11:51:10.138Z,1.30
2023-03-28T11:53:38.770Z,1.80
2023-03-28T11:56:09.677Z,1.43
2023-03-28T11:58:37.277Z,2.20
2023-03-28T12:01:11.054Z,2.57
2023-03-28T12:03:54.540Z,3.00
2023-03-28T12:06:30.463Z,1.10
2023-03-28T12:09:11.242Z,1.17
2023-03-28T12:11:42.581Z,0.97
2023-03-28T12:14:12.771Z,1.53
2023-03-28T12:16:42.056Z,1.53
2023-03-28T12:19:10.618Z,0.90
2023-03-28T12:21:41.691Z,1.83
2023-03-28T12:24:30.107Z,2.10
2023-03-28T12:27:16.924Z,3.63
2023-03-28T12:29:53.757Z,1.13
2023-03-28T12:32:26.880Z,0.70
2023-03-28T12:35:00.186Z,1.80
2023-03-28T12:37:30.496Z,2.50
2023-03-28T12:40:08.356Z,4.60
2023-03-28T12:42:34.866Z,1.97
2023-03-28T12:45:02.140Z,2.70
2023-03-28T12:47:36.937Z,0.70
2023-03-28T12:50:03.495Z,0.70
2023-03-28T12:52:38.185Z,2.90
2023-03-28T12:55:08.627Z,0.97
2023-03-28T12:57:41.454Z,1.73
2023-03-28T13:00:11.281Z,1.40
2023-03-28T13:02:40.971Z,2.87
2023-03-28T13:05:10.529Z,3.40
2023-03-28T13:07:40.141Z,3.80
2023-03-28T13:10:07.554Z,2.83
2023-03-28T13:12:40.221Z,2.40
2023-03-28T13:15:12.992Z,2.20
2023-03-28T13:17:42.313Z,3.20
2023-03-28T13:20:12.936Z,3.13
2023-03-28T13:22:48.454Z,5.50
2023-03-28T13:25:21.308Z,1.63
2023-03-28T13:27:51.373Z,3.27
2023-03-28T13:30:19.502Z,1.97
2023-03-28T13:32:51.735Z,2.33
2023-03-28T13:35:37.233Z,2.73
2023-03-28T13:38:13.977Z,2.63
2023-03-28T13:40:41.384Z,1.67
2023-03-28T13:43:21.811Z,6.90
2023-03-28T13:45:49.331Z,2.00
2023-03-28T13:48:16.201Z,3.03
2023-03-28T13:50:42.729Z,3.30
2023-03-28T13:53:09.245Z,3.97
2023-03-28T13:55:36.060Z,3.23
2023-03-28T13:58:02.630Z,1.50
2023-03-28T14:00:29.138Z,1.13
2023-03-28T14:03:02.280Z,1.50
2023-03-28T14:05:29.622Z,3.93
2023-03-28T14:08:03.889Z,3.87
2023-03-28T14:10:31.482Z,3.90
2023-03-28T14:13:03.523Z,4.37
2023-03-28T14:15:31.547Z,3.63
2023-03-28T14:17:58.477Z,2.03
2023-03-28T14:20:25.138Z,5.13
2023-03-28T14:22:59.615Z,2.83
2023-03-28T14:25:27.611Z,4.20
2023-03-28T14:27:54.813Z,3.77
2023-03-28T14:30:28.656Z,4.30
2023-03-28T14:32:57.646Z,2.23
2023-03-28T14:35:24.647Z,2.00
2023-03-28T14:37:51.711Z,3.40
2023-03-28T14:40:24.512Z,2.33
2023-03-28T14:42:59.978Z,2.20
2023-03-28T14:45:26.617Z,2.80
2023-03-28T14:47:53.179Z,3.53
2023-03-28T14:50:21.504Z,3.27
2023-03-28T14:52:48.020Z,3.07
2023-03-28T14:55:15.892Z,6.03
2023-03-28T14:57:43.101Z,4.63
2023-03-28T15:00:12.928Z,5.07
2023-03-28T15:02:40.401Z,4.50
2023-03-28T15:05:10.565Z,3.00
2023-03-28T15:07:37.235Z,5.00
2023-03-28T15:10:05.046Z,3.53
2023-03-28T15:12:31.870Z,2.50
2023-03-28T15:14:58.371Z,1.67
2023-03-28T15:17:26.679Z,0.80
2023-03-28T15:19:55.491Z,0.70
2023-03-28T15:22:22.833Z,3.10
2023-03-28T15:24:49.524Z,3.03
2023-03-28T15:27:27.146Z,1.53
2023-03-28T15:29:53.789Z,2.30
2023-03-28T15:32:20.736Z,0.83
2023-03-28T15:34:58.041Z,1.50
2023-03-28T15:37:25.116Z,1.27
2023-03-28T15:39:53.140Z,1.73
2023-03-28T15:42:19.712Z,1.90
2023-03-28T15:45:06.736Z,2.37
2023-03-28T15:47:33.281Z,2.17
2023-03-28T15:50:03.525Z,3.73
2023-03-28T15:52:30.160Z,5.17
2023-03-28T15:54:57.167Z,4.23
2023-03-28T15:57:24.963Z,5.13
2023-03-28T15:59:51.719Z,5.83
2023-03-28T16:02:18.194Z,5.40
2023-03-28T16:05:03.534Z,13.77
2023-03-28T16:07:50.115Z,8.73
2023-03-28T16:10:17.572Z,3.10
2023-03-28T16:12:44.722Z,9.43
2023-03-28T16:15:11.442Z,5.30
2023-03-28T16:17:37.972Z,4.07
2023-03-28T16:20:09.893Z,7.97
2023-03-28T16:22:36.602Z,5.23
2023-03-28T16:25:03.158Z,7.27
2023-03-28T16:27:30.056Z,5.23
2023-03-28T16:29:56.981Z,3.80
2023-03-28T16:32:24.944Z,7.57
2023-03-28T16:34:51.686Z,7.07
2023-03-28T16:37:18.300Z,6.13
2023-03-28T16:39:44.928Z,4.37
2023-03-28T16:42:11.624Z,5.00
2023-03-28T16:44:38.212Z,5.67
2023-03-28T16:47:05.747Z,15.33
2023-03-28T16:49:32.309Z,12.93
2023-03-28T16:51:58.958Z,8.27
2023-03-28T16:54:25.690Z,8.83
2023-03-28T16:56:52.269Z,8.93
2023-03-28T16:59:20.263Z,19.53
2023-03-28T17:01:47.800Z,13.10
2023-03-28T17:04:14.488Z,6.87
2023-03-28T17:06:41.010Z,9.27
2023-03-28T17:09:07.495Z,8.20
2023-03-28T17:11:34.571Z,4.77
2023-03-28T17:14:01.489Z,3.67
2023-03-28T17:16:28.198Z,4.17
2023-03-28T17:18:54.843Z,8.90
2023-03-28T17:21:21.582Z,6.87
2023-03-28T17:23:48.382Z,4.00
2023-03-28T17:26:14.995Z,7.83
2023-03-28T17:28:43.453Z,15.77
2023-03-28T17:31:14.348Z,5.73
2023-03-28T17:33:41.290Z,10.93
2023-03-28T17:36:15.281Z,11.23
2023-03-28T17:38:42.495Z,7.73
2023-03-28T17:41:09.282Z,5.17
2023-03-28T17:43:35.939Z,6.80
2023-03-28T17:46:02.613Z,6.73
2023-03-28T17:48:29.326Z,12.80
2023-03-28T17:50:55.903Z,10.43
2023-03-28T17:53:22.428Z,9.57
2023-03-28T17:55:48.972Z,7.67
2023-03-28T17:58:16.119Z,21.40
2023-03-28T18:00:42.673Z,8.67
2023-03-28T18:03:09.248Z,6.53
2023-03-28T18:05:35.888Z,6.73
2023-03-28T18:08:02.356Z,7.80
2023-03-28T18:10:28.905Z,11.20
2023-03-28T18:12:55.444Z,11.27
2023-03-28T18:15:22.003Z,9.43
2023-03-28T18:17:48.607Z,10.10
2023-03-28T18:20:15.226Z,12.33
2023-03-28T18:22:43.428Z,10.40
2023-03-28T18:25:10.223Z,11.43
2023-03-28T18:27:36.777Z,11.23
2023-03-28T18:30:06.689Z,14.40
2023-03-28T18:32:33.885Z,10.40
2023-03-28T18:35:00.929Z,17.90
2023-03-28T18:37:27.843Z,13.23
2023-03-28T18:39:54.348Z,10.20
2023-03-28T18:42:21.099Z,9.73
2023-03-28T18:44:47.604Z,14.10
2023-03-28T18:47:14.571Z,10.47
2023-03-28T18:49:42.024Z,11.70
2023-03-28T18:52:10.679Z,10.43
2023-03-28T18:54:37.721Z,8.40
2023-03-28T18:57:04.815Z,10.73
2023-03-28T18:59:31.449Z,10.40
2023-03-28T19:01:59.648Z,11.53
2023-03-28T19:04:26.681Z,10.83
2023-03-28T19:06:53.368Z,12.23
2023-03-28T19:09:20.008Z,14.13
2023-03-28T19:11:46.600Z,5.87
2023-03-28T19:14:13.189Z,14.23
2023-03-28T19:16:39.779Z,9.90
2023-03-28T19:19:06.399Z,11.43
2023-03-28T19:21:32.973Z,12.60
2023-03-28T19:23:59.523Z,11.70
2023-03-28T19:26:26.578Z,14.40
2023-03-28T19:28:53.723Z,16.53
2023-03-28T19:31:24.044Z,10.43
2023-03-28T19:33:50.722Z,13.00
2023-03-28T19:36:17.486Z,9.33
2023-03-28T19:38:47.402Z,8.00
2023-03-28T19:41:18.114Z,9.87
2023-03-28T19:43:44.939Z,10.50
2023-03-28T19:46:34.741Z,10.90
2023-03-28T19:49:05.166Z,9.97
2023-03-28T19:51:31.899Z,8.27
2023-03-28T19:53:58.424Z,9.93
2023-03-28T19:56:25.025Z,8.90
2023-03-28T19:58:54.522Z,6.20
2023-03-28T20:01:21.192Z,13.67
2023-03-28T20:03:52.241Z,9.20
2023-03-28T20:06:19.005Z,9.00
2023-03-28T20:08:45.637Z,10.23
2023-03-28T20:11:12.778Z,12.00
2023-03-28T20:13:39.430Z,12.07
2023-03-28T20:16:06.587Z,14.27
2023-03-28T20:18:33.892Z,11.63
2023-03-28T20:21:01.270Z,13.77
2023-03-28T20:23:30.130Z,14.80
2023-03-28T20:25:58.819Z,13.73
2023-03-28T20:28:25.423Z,14.30
2023-03-28T20:30:52.420Z,11.20
2023-03-28T20:33:20.622Z,10.50
2023-03-28T20:35:59.604Z,14.70
2023-03-28T20:38:26.264Z,15.50
2023-03-28T20:40:52.807Z,16.33
2023-03-28T20:43:26.686Z,16.90
2023-03-28T20:45:55.786Z,19.13
2023-03-28T20:48:34.148Z,21.53
2023-03-28T20:51:03.281Z,24.00
2023-03-28T20:53:30.502Z,24.37
2023-03-28T20:56:01.875Z,23.33
2023-03-28T20:58:29.306Z,24.13
2023-03-28T21:00:57.383Z,21.50
2023-03-28T21:03:24.090Z,21.60
2023-03-28T21:05:51.699Z,29.07
2023-03-28T21:08:19.856Z,26.10
2023-03-28T21:10:53.537Z,21.83
2023-03-28T21:13:22.468Z,24.23
2023-03-28T21:15:52.697Z,22.97
2023-03-28T21:18:19.420Z,24.30
2023-03-28T21:20:45.968Z,21.00
2023-03-28T21:23:13.396Z,25.37
2023-03-28T21:25:40.246Z,23.37
2023-03-28T21:28:07.257Z,19.70
2023-03-28T21:30:33.849Z,20.93
2023-03-28T21:33:04.024Z,20.53
2023-03-28T21:35:30.735Z,23.73
2023-03-28T21:37:57.342Z,22.67
2023-03-28T21:40:23.900Z,24.37
2023-03-28T21:42:50.525Z,26.53
2023-03-28T21:45:17.152Z,29.50
2023-03-28T21:47:44.969Z,31.23
2023-03-28T21:50:14.450Z,30.50
2023-03-28T21:52:41.471Z,29.00
2023-03-28T21:55:09.315Z,27.70
2023-03-28T21:57:36.846Z,30.00
2023-03-28T22:00:14.914Z,29.70
2023-03-28T22:02:42.132Z,31.37
2023-03-28T22:05:22.063Z,43.93
2023-03-28T22:07:55.103Z,43.77
2023-03-28T22:10:26.500Z,43.77
2023-03-28T22:12:58.925Z,37.77
2023-03-28T22:15:25.708Z,35.80
2023-03-28T22:17:58.113Z,41.80
2023-03-28T22:20:25.415Z,38.30
2023-03-28T22:22:51.935Z,36.90
2023-03-28T22:25:18.827Z,29.40
2023-03-28T22:27:45.481Z,30.17
2023-03-28T22:30:12.382Z,28.10
2023-03-28T22:32:39.177Z,29.40
2023-03-28T22:35:05.956Z,34.20
2023-03-28T22:37:32.447Z,28.37
2023-03-28T22:39:58.972Z,31.87
2023-03-28T22:42:25.699Z,33.33
2023-03-28T22:44:52.266Z,33.53
2023-03-28T22:47:18.799Z,34.00
2023-03-28T22:49:45.449Z,33.33
2023-03-28T22:52:13.062Z,31.83
2023-03-28T22:54:39.601Z,29.47
2023-03-28T22:57:06.256Z,39.97
2023-03-28T22:59:33.121Z,31.83
2023-03-28T23:01:59.695Z,31.87
2023-03-28T23:04:27.298Z,29.63
2023-03-28T23:06:53.912Z,27.87
2023-03-28T23:09:20.709Z,30.40
2023-03-28T23:11:47.174Z,27.20
2023-03-28T23:14:13.721Z,32.07
2023-03-28T23:16:40.306Z,32.60
2023-03-28T23:19:06.949Z,38.13
2023-03-28T23:21:33.821Z,34.17
2023-03-28T23:24:01.173Z,28.47
2023-03-28T23:26:27.801Z,34.13
2023-03-28T23:28:54.422Z,39.60
2023-03-28T23:31:21.124Z,46.23
2023-03-28T23:33:47.754Z,48.63
2023-03-28T23:36:14.517Z,46.10
2023-03-28T23:38:41.199Z,46.43
2023-03-28T23:41:07.965Z,47.60
2023-03-28T23:43:34.569Z,43.03
2023-03-28T23:46:04.296Z,41.40
2023-03-28T23:48:31.316Z,41.03
2023-03-28T23:50:58.156Z,41.27
2023-03-28T23:53:24.801Z,43.10
2023-03-28T23:55:51.862Z,41.77
2023-03-28T23:58:18.393Z,40.47
